createdAt,value
2023-05-11T00:00:20.973Z,94950.00
2023-05-11T00:01:20.943Z,94952.00
2023-05-11T00:02:21.039Z,94950.00
2023-05-11T00:03:21.264Z,94950.00
2023-05-11T00:04:21.226Z,94950.00
2023-05-11T00:05:21.164Z,94948.00
2023-05-11T00:06:21.192Z,94946.00
2023-05-11T00:07:21.300Z,94945.00
2023-05-11T00:08:21.309Z,94946.00
2023-05-11T00:09:22.431Z,94945.00
2023-05-11T00:10:21.326Z,94945.00
2023-05-11T00:11:21.330Z,94939.00
2023-05-11T00:12:21.403Z,94941.00
2023-05-11T00:13:21.429Z,94939.00
2023-05-11T00:14:21.434Z,94939.00
2023-05-11T00:15:21.552Z,94933.00
2023-05-11T00:16:21.584Z,94935.00
2023-05-11T00:17:21.567Z,94935.00
2023-05-11T00:18:21.629Z,94935.00
2023-05-11T00:19:21.569Z,94937.00
2023-05-11T00:20:21.586Z,94933.00
2023-05-11T00:22:44.065Z,94935.00
2023-05-11T00:23:41.667Z,94939.00
2023-05-11T00:24:41.681Z,94935.00
2023-05-11T00:25:41.686Z,94937.00
2023-05-11T00:26:41.597Z,94933.00
2023-05-11T00:27:41.712Z,94937.00
2023-05-11T00:28:41.616Z,94935.00
2023-05-11T00:31:01.805Z,94933.00
2023-05-11T00:32:01.695Z,94931.00
2023-05-11T00:41:38.500Z,94925.00
2023-05-11T00:42:38.499Z,94925.00
2023-05-11T00:48:37.276Z,94923.00
2023-05-11T00:51:54.950Z,94919.00
2023-05-11T00:54:44.338Z,94927.00
2023-05-11T00:55:44.236Z,94925.00
2023-05-11T00:56:44.264Z,94927.00
2023-05-11T00:57:44.499Z,94921.00
2023-05-11T00:58:44.256Z,94925.00
2023-05-11T00:59:44.186Z,94923.00
2023-05-11T01:02:03.985Z,94923.00
2023-05-11T01:08:12.274Z,94931.00
2023-05-11T01:09:12.207Z,94931.00
2023-05-11T01:10:12.279Z,94931.00
2023-05-11T01:11:12.231Z,94929.00
2023-05-11T01:12:12.232Z,94931.00
2023-05-11T01:13:12.223Z,94927.00
2023-05-11T01:14:12.253Z,94931.00
2023-05-11T01:18:31.656Z,94927.00
2023-05-11T01:22:51.674Z,94929.00
2023-05-11T01:23:51.353Z,94929.00
2023-05-11T01:26:10.971Z,94929.00
2023-05-11T01:27:10.963Z,94925.00
2023-05-11T01:28:10.980Z,94925.00
2023-05-11T01:29:10.917Z,94925.00
2023-05-11T01:30:10.910Z,94925.00
2023-05-11T01:31:11.679Z,94925.00
2023-05-11T01:32:11.118Z,94923.00
2023-05-11T01:33:10.957Z,94921.00
2023-05-11T01:34:10.902Z,94923.00
2023-05-11T01:35:10.960Z,94921.00
2023-05-11T01:36:10.858Z,94921.00
2023-05-11T01:37:10.939Z,94923.00
2023-05-11T01:38:10.874Z,94921.00
2023-05-11T01:39:10.893Z,94921.00
2023-05-11T01:40:10.850Z,94919.00
2023-05-11T01:41:10.855Z,94921.00
2023-05-11T01:42:10.854Z,94917.00
2023-05-11T01:43:10.879Z,94923.00
2023-05-11T01:44:10.801Z,94921.00
2023-05-11T01:45:10.825Z,94921.00
2023-05-11T01:50:41.777Z,94919.00
2023-05-11T01:58:46.544Z,94921.00
2023-05-11T01:59:46.444Z,94919.00
2023-05-11T02:06:38.956Z,94927.00
2023-05-11T02:09:48.705Z,94927.00
2023-05-11T02:15:34.797Z,94925.00
2023-05-11T02:16:34.648Z,94925.00
2023-05-11T02:18:54.452Z,94927.00
2023-05-11T02:19:54.318Z,94925.00
2023-05-11T02:20:54.340Z,94923.00
2023-05-11T02:21:54.381Z,94927.00
2023-05-11T02:22:54.297Z,94925.00
2023-05-11T02:23:54.485Z,94925.00
2023-05-11T02:24:55.080Z,94929.00
2023-05-11T02:25:54.281Z,94927.00
2023-05-11T02:26:54.365Z,94927.00
2023-05-11T02:27:54.292Z,94927.00
2023-05-11T02:28:54.270Z,94929.00
2023-05-11T02:29:54.285Z,94927.00
2023-05-11T02:30:54.246Z,94925.00
2023-05-11T02:31:54.240Z,94925.00
2023-05-11T02:32:54.229Z,94919.00
2023-05-11T02:33:54.246Z,94923.00
2023-05-11T02:34:54.220Z,94921.00
2023-05-11T02:35:54.372Z,94923.00
2023-05-11T02:36:54.194Z,94921.00
2023-05-11T02:37:54.177Z,94921.00
2023-05-11T02:38:54.173Z,94921.00
2023-05-11T02:39:54.170Z,94921.00
2023-05-11T02:40:54.189Z,94921.00
2023-05-11T02:41:54.156Z,94919.00
2023-05-11T02:42:54.145Z,94921.00
2023-05-11T02:43:54.180Z,94917.00
2023-05-11T02:44:54.108Z,94915.00
2023-05-11T02:45:54.180Z,94913.00
2023-05-11T02:46:55.076Z,94909.00
2023-05-11T02:47:54.292Z,94911.00
2023-05-11T02:48:54.131Z,94909.00
2023-05-11T02:49:54.103Z,94911.00
2023-05-11T02:50:54.042Z,94913.00
2023-05-11T02:51:54.054Z,94909.00
2023-05-11T02:52:54.059Z,94911.00
2023-05-11T02:53:54.156Z,94907.00
2023-05-11T02:54:54.064Z,94905.00
2023-05-11T02:55:54.065Z,94905.00
2023-05-11T02:56:54.065Z,94903.00
2023-05-11T02:57:54.043Z,94905.00
2023-05-11T02:58:54.000Z,94905.00
2023-05-11T02:59:54.009Z,94905.00
2023-05-11T03:00:54.142Z,94903.00
2023-05-11T03:01:54.195Z,94903.00
2023-05-11T03:02:54.147Z,94903.00
2023-05-11T03:03:54.069Z,94903.00
2023-05-11T03:04:54.045Z,94901.00
2023-05-11T03:05:54.110Z,94899.00
2023-05-11T03:06:54.159Z,94899.00
2023-05-11T03:07:54.145Z,94898.00
2023-05-11T03:08:54.159Z,94899.00
2023-05-11T03:09:54.146Z,94903.00
2023-05-11T03:10:54.152Z,94901.00
2023-05-11T03:11:54.160Z,94901.00
2023-05-11T03:12:54.172Z,94899.00
2023-05-11T03:13:54.195Z,94898.00
2023-05-11T03:14:54.302Z,94901.00
2023-05-11T03:15:54.429Z,94899.00
2023-05-11T03:16:54.498Z,94899.00
2023-05-11T03:17:55.638Z,94898.00
2023-05-11T03:18:54.759Z,94901.00
2023-05-11T03:19:54.542Z,94901.00
2023-05-11T03:20:54.634Z,94903.00
2023-05-11T03:21:54.653Z,94901.00
2023-05-11T03:22:55.577Z,94901.00
2023-05-11T03:23:54.697Z,94903.00
2023-05-11T03:24:54.767Z,94901.00
2023-05-11T03:25:54.886Z,94899.00
2023-05-11T03:26:54.805Z,94899.00
2023-05-11T03:27:54.881Z,94898.00
2023-05-11T03:28:54.892Z,94898.00
2023-05-11T03:29:55.009Z,94894.00
2023-05-11T03:30:55.121Z,94894.00
2023-05-11T03:31:55.132Z,94894.00
2023-05-11T03:32:55.215Z,94894.00
2023-05-11T03:33:55.161Z,94896.00
2023-05-11T03:34:55.185Z,94894.00
2023-05-11T03:35:55.242Z,94896.00
2023-05-11T03:36:55.256Z,94894.00
2023-05-11T03:37:55.298Z,94896.00
2023-05-11T03:38:55.369Z,94892.00
2023-05-11T03:39:55.398Z,94894.00
2023-05-11T03:40:55.494Z,94888.00
2023-05-11T03:41:55.494Z,94890.00
2023-05-11T03:42:55.517Z,94892.00
2023-05-11T03:43:55.532Z,94892.00
2023-05-11T03:44:55.572Z,94892.00
2023-05-11T03:45:55.640Z,94894.00
2023-05-11T03:46:55.629Z,94890.00
2023-05-11T03:47:55.659Z,94890.00
2023-05-11T03:48:55.659Z,94892.00
2023-05-11T03:49:55.752Z,94890.00
2023-05-11T03:50:55.713Z,94892.00
2023-05-11T03:51:55.769Z,94894.00
2023-05-11T03:52:55.769Z,94890.00
2023-05-11T03:53:55.819Z,94886.00
2023-05-11T03:54:55.908Z,94886.00
2023-05-11T03:55:55.986Z,94886.00
2023-05-11T03:56:56.030Z,94890.00
2023-05-11T03:57:56.037Z,94890.00
2023-05-11T03:58:56.113Z,94892.00
2023-05-11T03:59:56.165Z,94890.00
2023-05-11T04:00:56.235Z,94890.00
2023-05-11T04:01:56.332Z,94892.00
2023-05-11T04:02:56.540Z,94888.00
2023-05-11T04:03:56.449Z,94886.00
2023-05-11T04:04:56.394Z,94886.00
2023-05-11T04:05:56.518Z,94886.00
2023-05-11T04:06:56.544Z,94886.00
2023-05-11T04:07:56.590Z,94886.00
2023-05-11T04:08:56.625Z,94886.00
2023-05-11T04:09:56.696Z,94886.00
2023-05-11T04:10:56.644Z,94884.00
2023-05-11T04:11:56.730Z,94886.00
2023-05-11T04:12:56.727Z,94886.00
2023-05-11T04:13:56.835Z,94886.00
2023-05-11T04:14:56.860Z,94888.00
2023-05-11T04:15:56.880Z,94888.00
2023-05-11T04:16:56.993Z,94886.00
2023-05-11T04:17:56.961Z,94886.00
2023-05-11T04:18:56.942Z,94886.00
2023-05-11T04:19:57.201Z,94886.00
2023-05-11T04:26:01.245Z,94884.00
2023-05-11T04:28:25.402Z,94886.00
2023-05-11T04:31:10.906Z,94890.00
2023-05-11T04:39:01.832Z,94898.00
2023-05-11T04:44:30.689Z,94899.00
2023-05-11T04:45:38.178Z,94901.00
2023-05-11T04:47:51.545Z,94899.00
2023-05-11T04:56:06.027Z,94903.00
2023-05-11T05:15:27.154Z,94913.00
2023-05-11T05:16:26.780Z,94911.00
2023-05-11T05:17:26.856Z,94913.00
2023-05-11T05:18:26.763Z,94913.00
2023-05-11T05:22:01.525Z,94917.00
2023-05-11T05:25:28.011Z,94923.00
2023-05-11T05:26:27.953Z,94921.00
2023-05-11T05:27:27.995Z,94921.00
2023-05-11T05:28:27.952Z,94921.00
2023-05-11T05:29:27.897Z,94921.00
2023-05-11T05:30:27.897Z,94921.00
2023-05-11T05:32:54.513Z,94921.00
2023-05-11T05:38:01.796Z,94925.00
2023-05-11T05:44:54.146Z,94929.00
2023-05-11T05:47:13.555Z,94927.00
2023-05-11T05:48:13.480Z,94927.00
2023-05-11T05:49:13.443Z,94931.00
2023-05-11T05:50:13.497Z,94933.00
2023-05-11T05:51:13.433Z,94929.00
2023-05-11T05:52:14.147Z,94929.00
2023-05-11T05:53:13.400Z,94929.00
2023-05-11T05:54:13.429Z,94933.00
2023-05-11T05:55:14.126Z,94929.00
2023-05-11T05:56:13.352Z,94927.00
2023-05-11T05:57:15.667Z,94929.00
2023-05-11T05:58:13.708Z,94933.00
2023-05-11T05:59:16.217Z,94931.00
2023-05-11T06:00:14.121Z,94931.00
2023-05-11T06:01:13.483Z,94933.00
2023-05-11T06:02:13.549Z,94935.00
2023-05-11T06:03:13.545Z,94935.00
2023-05-11T06:04:13.584Z,94935.00
2023-05-11T06:05:13.481Z,94937.00
2023-05-11T06:06:13.480Z,94937.00
2023-05-11T06:07:13.481Z,94937.00
2023-05-11T06:08:13.462Z,94935.00
2023-05-11T06:09:13.502Z,94937.00
2023-05-11T06:10:13.741Z,94939.00
2023-05-11T06:11:13.380Z,94941.00
2023-05-11T06:12:13.386Z,94939.00
2023-05-11T06:13:13.424Z,94939.00
2023-05-11T06:14:13.451Z,94941.00
2023-05-11T06:15:13.348Z,94941.00
2023-05-11T06:16:13.466Z,94941.00
2023-05-11T06:17:13.356Z,94941.00
2023-05-11T06:18:13.437Z,94939.00
2023-05-11T06:19:13.480Z,94937.00
2023-05-11T06:20:13.366Z,94941.00
2023-05-11T06:21:13.340Z,94941.00
2023-05-11T06:22:13.362Z,94941.00
2023-05-11T06:23:14.109Z,94943.00
2023-05-11T06:24:13.352Z,94945.00
2023-05-11T06:25:13.305Z,94939.00
2023-05-11T06:26:13.373Z,94943.00
2023-05-11T06:27:15.469Z,94941.00
2023-05-11T06:28:13.257Z,94943.00
2023-05-11T06:29:13.537Z,94943.00
2023-05-11T06:30:14.156Z,94941.00
2023-05-11T06:31:13.240Z,94945.00
2023-05-11T06:32:13.254Z,94943.00
2023-05-11T06:33:14.075Z,94945.00
2023-05-11T06:34:13.269Z,94945.00
2023-05-11T06:35:14.060Z,94941.00
2023-05-11T06:36:13.271Z,94943.00
2023-05-11T06:37:13.275Z,94943.00
2023-05-11T06:38:13.194Z,94945.00
2023-05-11T06:39:16.583Z,94941.00
2023-05-11T06:47:13.703Z,94943.00
2023-05-11T06:48:06.312Z,94945.00
2023-05-11T06:49:06.093Z,94941.00
2023-05-11T06:50:06.876Z,94945.00
2023-05-11T06:51:06.105Z,94945.00
2023-05-11T06:52:06.015Z,94939.00
2023-05-11T06:53:06.023Z,94943.00
2023-05-11T06:54:05.982Z,94939.00
2023-05-11T06:55:14.944Z,94939.00
2023-05-11T06:56:05.943Z,94941.00
2023-05-11T06:57:05.958Z,94943.00
2023-05-11T06:58:05.954Z,94943.00
2023-05-11T06:59:06.846Z,94939.00
2023-05-11T07:00:06.999Z,94943.00
2023-05-11T07:01:06.032Z,94945.00
2023-05-11T07:05:23.251Z,94939.00
2023-05-11T07:07:44.050Z,94941.00
2023-05-11T07:08:43.178Z,94943.00
2023-05-11T07:11:24.844Z,94941.00
2023-05-11T07:19:41.962Z,94937.00
2023-05-11T07:20:36.398Z,94939.00
2023-05-11T07:21:33.209Z,94941.00
2023-05-11T07:24:25.818Z,94941.00
2023-05-11T07:25:25.052Z,94939.00
2023-05-11T07:26:25.018Z,94939.00
2023-05-11T07:27:24.951Z,94943.00
2023-05-11T07:28:25.914Z,94941.00
2023-05-11T07:29:24.972Z,94941.00
2023-05-11T07:30:25.211Z,94939.00
2023-05-11T07:31:25.066Z,94939.00
2023-05-11T07:32:25.126Z,94937.00
2023-05-11T07:33:25.922Z,94937.00
2023-05-11T07:34:24.978Z,94939.00
2023-05-11T07:35:24.917Z,94941.00
2023-05-11T07:36:24.941Z,94939.00
2023-05-11T07:37:24.867Z,94941.00
2023-05-11T07:38:24.932Z,94939.00
2023-05-11T07:39:24.903Z,94937.00
2023-05-11T07:40:24.943Z,94939.00
2023-05-11T07:41:24.841Z,94937.00
2023-05-11T07:42:24.854Z,94939.00
2023-05-11T07:43:24.857Z,94937.00
2023-05-11T07:44:24.945Z,94937.00
2023-05-11T07:45:24.835Z,94937.00
2023-05-11T07:46:24.898Z,94935.00
2023-05-11T07:47:24.879Z,94939.00
2023-05-11T07:48:24.837Z,94937.00
2023-05-11T07:49:35.242Z,94939.00
2023-05-11T07:50:25.993Z,94939.00
2023-05-11T07:51:24.805Z,94939.00
2023-05-11T07:52:24.821Z,94939.00
2023-05-11T07:53:24.774Z,94941.00
2023-05-11T07:54:24.867Z,94941.00
2023-05-11T07:55:24.769Z,94939.00
2023-05-11T07:56:24.771Z,94937.00
2023-05-11T07:57:24.781Z,94937.00
2023-05-11T07:58:24.771Z,94935.00
2023-05-11T07:59:24.766Z,94937.00
2023-05-11T08:00:24.754Z,94937.00
2023-05-11T08:01:24.714Z,94939.00
2023-05-11T08:02:24.852Z,94937.00
2023-05-11T08:03:24.947Z,94937.00
2023-05-11T08:04:24.732Z,94937.00
2023-05-11T08:05:24.909Z,94937.00
2023-05-11T08:06:24.812Z,94933.00
2023-05-11T08:07:24.929Z,94935.00
2023-05-11T08:08:24.940Z,94937.00
2023-05-11T08:09:24.972Z,94935.00
2023-05-11T08:10:25.052Z,94931.00
2023-05-11T08:11:25.095Z,94933.00
2023-05-11T08:12:25.093Z,94935.00
2023-05-11T08:13:25.956Z,94933.00
2023-05-11T08:14:25.115Z,94933.00
2023-05-11T08:15:25.121Z,94935.00
2023-05-11T08:16:25.162Z,94933.00
2023-05-11T08:17:25.197Z,94935.00
2023-05-11T08:18:25.269Z,94935.00
2023-05-11T08:19:25.316Z,94933.00
2023-05-11T08:20:25.313Z,94933.00
2023-05-11T08:21:25.309Z,94933.00
2023-05-11T08:22:25.372Z,94933.00
2023-05-11T08:23:28.439Z,94933.00
2023-05-11T08:24:25.443Z,94935.00
2023-05-11T08:25:25.800Z,94935.00
2023-05-11T08:26:25.361Z,94931.00
2023-05-11T08:27:26.385Z,94929.00
2023-05-11T08:28:25.353Z,94933.00
2023-05-11T08:29:25.381Z,94933.00
2023-05-11T08:30:25.327Z,94931.00
2023-05-11T08:31:25.419Z,94933.00
2023-05-11T08:32:25.716Z,94935.00
2023-05-11T08:33:37.713Z,94931.00
2023-05-11T08:34:26.424Z,94933.00
2023-05-11T08:35:25.319Z,94933.00
2023-05-11T08:36:25.839Z,94933.00
2023-05-11T08:37:25.319Z,94931.00
2023-05-11T08:38:25.274Z,94929.00
2023-05-11T08:39:43.787Z,94931.00
2023-05-11T08:40:26.300Z,94931.00
2023-05-11T08:41:25.269Z,94931.00
2023-05-11T08:42:25.261Z,94929.00
2023-05-11T08:43:25.227Z,94929.00
2023-05-11T08:44:25.240Z,94927.00
2023-05-11T08:45:25.299Z,94929.00
2023-05-11T08:46:25.414Z,94929.00
2023-05-11T08:47:25.235Z,94927.00
2023-05-11T08:48:25.242Z,94927.00
2023-05-11T08:49:25.289Z,94929.00
2023-05-11T08:50:25.221Z,94929.00
2023-05-11T08:51:27.312Z,94927.00
2023-05-11T08:52:25.168Z,94931.00
2023-05-11T08:53:25.223Z,94929.00
2023-05-11T08:54:25.849Z,94931.00
2023-05-11T08:55:25.432Z,94931.00
2023-05-11T08:56:25.314Z,94929.00
2023-05-11T08:57:25.372Z,94931.00
2023-05-11T08:58:25.366Z,94931.00
2023-05-11T08:59:25.421Z,94931.00
2023-05-11T09:00:25.431Z,94931.00
2023-05-11T09:01:26.901Z,94931.00
2023-05-11T09:02:25.645Z,94929.00
2023-05-11T09:03:25.608Z,94929.00
2023-05-11T09:04:25.770Z,94927.00
2023-05-11T09:11:37.457Z,94925.00
2023-05-11T09:12:30.285Z,94929.00
2023-05-11T09:13:30.278Z,94929.00
2023-05-11T09:14:30.231Z,94927.00
2023-05-11T09:15:36.964Z,94929.00
2023-05-11T09:16:36.607Z,94927.00
2023-05-11T09:17:31.328Z,94925.00
2023-05-11T09:18:30.236Z,94927.00
2023-05-11T09:19:30.239Z,94929.00
2023-05-11T09:20:30.217Z,94927.00
2023-05-11T09:21:30.238Z,94923.00
2023-05-11T09:22:32.580Z,94925.00
2023-05-11T09:23:30.246Z,94923.00
2023-05-11T09:24:30.184Z,94925.00
2023-05-11T09:25:30.979Z,94925.00
2023-05-11T09:26:30.357Z,94923.00
2023-05-11T09:27:30.151Z,94923.00
2023-05-11T09:28:35.792Z,94923.00
2023-05-11T09:29:32.023Z,94923.00
2023-05-11T09:30:30.948Z,94925.00
2023-05-11T09:31:30.564Z,94923.00
2023-05-11T09:32:31.006Z,94923.00
2023-05-11T09:33:30.123Z,94923.00
2023-05-11T09:34:30.113Z,94923.00
2023-05-11T09:35:30.195Z,94919.00
2023-05-11T09:36:31.432Z,94921.00
2023-05-11T09:37:30.122Z,94927.00
2023-05-11T09:38:30.208Z,94919.00
2023-05-11T09:39:37.799Z,94921.00
2023-05-11T09:41:34.914Z,94923.00
2023-05-11T09:42:31.042Z,94923.00
2023-05-11T09:43:30.151Z,94923.00
2023-05-11T09:44:30.112Z,94921.00
2023-05-11T09:45:30.167Z,94923.00
2023-05-11T09:46:30.055Z,94921.00
2023-05-11T09:47:30.181Z,94919.00
2023-05-11T09:48:30.121Z,94921.00
2023-05-11T09:49:30.098Z,94925.00
2023-05-11T09:50:30.117Z,94923.00
2023-05-11T09:51:30.626Z,94923.00
2023-05-11T09:52:30.055Z,94921.00
2023-05-11T09:53:29.954Z,94921.00
2023-05-11T09:54:32.493Z,94919.00
2023-05-11T09:55:30.139Z,94919.00
2023-05-11T09:56:30.145Z,94919.00
2023-05-11T09:57:30.191Z,94919.00
2023-05-11T10:00:24.687Z,94917.00
2023-05-11T10:01:24.093Z,94919.00
2023-05-11T10:02:24.168Z,94917.00
2023-05-11T10:03:24.780Z,94917.00
2023-05-11T10:04:24.321Z,94917.00
2023-05-11T10:05:24.298Z,94917.00
2023-05-11T10:06:24.094Z,94913.00
2023-05-11T10:07:24.622Z,94915.00
2023-05-11T10:08:23.991Z,94913.00
2023-05-11T10:09:23.979Z,94913.00
2023-05-11T10:10:24.013Z,94913.00
2023-05-11T10:11:26.141Z,94915.00
2023-05-11T10:12:23.956Z,94915.00
2023-05-11T10:13:24.026Z,94913.00
2023-05-11T10:14:24.058Z,94915.00
2023-05-11T10:15:24.066Z,94913.00
2023-05-11T10:16:24.178Z,94917.00
2023-05-11T10:17:24.172Z,94913.00
2023-05-11T10:18:24.197Z,94915.00
2023-05-11T10:19:24.254Z,94915.00
2023-05-11T10:20:24.197Z,94915.00
2023-05-11T10:21:24.208Z,94915.00
2023-05-11T10:22:24.347Z,94913.00
2023-05-11T10:23:24.322Z,94913.00
2023-05-11T10:24:24.329Z,94911.00
2023-05-11T10:25:24.644Z,94911.00
2023-05-11T10:26:24.356Z,94913.00
2023-05-11T10:27:24.460Z,94911.00
2023-05-11T10:28:24.394Z,94907.00
2023-05-11T10:29:24.447Z,94907.00
2023-05-11T10:30:24.471Z,94907.00
2023-05-11T10:41:00.079Z,94899.00
2023-05-11T10:41:59.557Z,94898.00
2023-05-11T10:42:59.665Z,94898.00
2023-05-11T10:43:59.551Z,94896.00
2023-05-11T10:45:00.000Z,94896.00
2023-05-11T10:45:59.806Z,94892.00
2023-05-11T10:46:59.499Z,94894.00
2023-05-11T10:47:59.556Z,94890.00
2023-05-11T10:48:59.512Z,94890.00
2023-05-11T10:50:00.199Z,94888.00
2023-05-11T10:51:00.162Z,94888.00
2023-05-11T10:51:59.427Z,94890.00
2023-05-11T10:52:59.413Z,94886.00
2023-05-11T10:53:59.453Z,94888.00
2023-05-11T10:54:59.461Z,94892.00
2023-05-11T10:55:59.374Z,94886.00
2023-05-11T10:56:59.484Z,94892.00
2023-05-11T10:57:59.440Z,94888.00
2023-05-11T10:58:59.673Z,94886.00
2023-05-11T11:00:00.182Z,94884.00
2023-05-11T11:00:59.562Z,94888.00
2023-05-11T11:01:59.555Z,94882.00
2023-05-11T11:02:59.537Z,94882.00
2023-05-11T11:04:00.190Z,94886.00
2023-05-11T11:04:59.572Z,94888.00
2023-05-11T11:06:01.095Z,94884.00
2023-05-11T11:07:02.210Z,94886.00
2023-05-11T11:08:00.243Z,94886.00
2023-05-11T11:08:59.554Z,94882.00
2023-05-11T11:09:59.674Z,94884.00
2023-05-11T11:11:00.548Z,94882.00
2023-05-11T11:11:59.557Z,94880.00
2023-05-11T11:12:59.569Z,94880.00
2023-05-11T11:14:00.153Z,94882.00
2023-05-11T11:15:00.149Z,94880.00
2023-05-11T11:16:00.158Z,94882.00
2023-05-11T11:16:59.530Z,94880.00
2023-05-11T11:17:59.713Z,94882.00
2023-05-11T11:18:59.545Z,94878.00
2023-05-11T11:19:59.522Z,94876.00
2023-05-11T11:20:59.465Z,94878.00
2023-05-11T11:21:59.506Z,94876.00
2023-05-11T11:22:59.731Z,94876.00
2023-05-11T11:23:59.528Z,94872.00
2023-05-11T11:25:00.568Z,94870.00
2023-05-11T11:25:59.558Z,94872.00
2023-05-11T11:26:59.471Z,94870.00
2023-05-11T11:27:59.457Z,94872.00
2023-05-11T11:29:00.299Z,94872.00
2023-05-11T11:29:59.399Z,94868.00
2023-05-11T11:30:59.545Z,94868.00
2023-05-11T11:31:59.632Z,94868.00
2023-05-11T11:32:59.456Z,94858.00
2023-05-11T11:34:00.225Z,94858.00
2023-05-11T11:34:59.542Z,94860.00
2023-05-11T11:35:59.436Z,94858.00
2023-05-11T11:36:59.489Z,94854.00
2023-05-11T11:37:59.927Z,94854.00
2023-05-11T11:38:59.462Z,94850.00
2023-05-11T11:40:08.917Z,94852.00
2023-05-11T11:41:00.301Z,94850.00
2023-05-11T11:41:59.432Z,94850.00
2023-05-11T11:42:59.354Z,94850.00
2023-05-11T11:43:59.704Z,94850.00
2023-05-11T11:44:59.293Z,94852.00
2023-05-11T11:45:59.383Z,94846.00
2023-05-11T11:47:00.178Z,94848.00
2023-05-11T11:47:59.318Z,94848.00
2023-05-11T11:48:59.539Z,94843.00
2023-05-11T11:49:59.386Z,94845.00
2023-05-11T11:50:59.290Z,94848.00
2023-05-11T11:51:59.249Z,94845.00
2023-05-11T11:52:59.296Z,94845.00
2023-05-11T11:54:00.694Z,94845.00
2023-05-11T11:54:59.414Z,94841.00
2023-05-11T11:55:59.670Z,94839.00
2023-05-11T11:56:59.491Z,94837.00
2023-05-11T11:57:59.582Z,94831.00
2023-05-11T11:58:59.635Z,94833.00
2023-05-11T11:59:59.698Z,94831.00
2023-05-11T12:00:59.936Z,94827.00
2023-05-11T12:01:59.719Z,94827.00
2023-05-11T12:03:00.765Z,94831.00
2023-05-11T12:03:59.740Z,94827.00
2023-05-11T12:04:59.769Z,94831.00
2023-05-11T12:05:59.717Z,94829.00
2023-05-11T12:06:59.899Z,94829.00
2023-05-11T12:16:08.102Z,94823.00
2023-05-11T12:17:11.162Z,94823.00
2023-05-11T12:18:14.127Z,94821.00
2023-05-11T12:19:08.156Z,94823.00
2023-05-11T12:20:07.494Z,94823.00
2023-05-11T12:21:07.425Z,94825.00
2023-05-11T12:22:08.422Z,94823.00
2023-05-11T12:23:07.404Z,94825.00
2023-05-11T12:24:07.417Z,94821.00
2023-05-11T12:25:07.425Z,94821.00
2023-05-11T12:26:07.425Z,94819.00
2023-05-11T12:27:07.408Z,94819.00
2023-05-11T12:28:07.364Z,94817.00
2023-05-11T12:29:07.354Z,94817.00
2023-05-11T12:30:07.461Z,94819.00
2023-05-11T12:31:07.347Z,94815.00
2023-05-11T12:32:07.373Z,94819.00
2023-05-11T12:33:07.496Z,94815.00
2023-05-11T12:34:07.374Z,94813.00
2023-05-11T12:35:07.287Z,94811.00
2023-05-11T12:36:08.451Z,94813.00
2023-05-11T12:37:07.305Z,94809.00
2023-05-11T12:38:07.313Z,94807.00
2023-05-11T12:39:07.303Z,94809.00
2023-05-11T12:40:07.306Z,94805.00
2023-05-11T12:41:07.238Z,94803.00
2023-05-11T12:42:07.359Z,94805.00
2023-05-11T12:43:07.364Z,94807.00
2023-05-11T12:44:07.249Z,94809.00
2023-05-11T12:45:07.253Z,94803.00
2023-05-11T12:46:07.277Z,94805.00
2023-05-11T12:47:07.296Z,94803.00
2023-05-11T12:48:07.303Z,94803.00
2023-05-11T12:49:07.269Z,94805.00
2023-05-11T12:50:07.301Z,94803.00
2023-05-11T12:51:07.266Z,94797.00
2023-05-11T12:52:07.291Z,94801.00
2023-05-11T12:53:07.194Z,94799.00
2023-05-11T12:54:07.204Z,94795.00
2023-05-11T12:55:07.209Z,94797.00
2023-05-11T12:56:07.169Z,94797.00
2023-05-11T12:57:07.241Z,94797.00
2023-05-11T12:58:07.209Z,94795.00
2023-05-11T12:59:07.278Z,94795.00
2023-05-11T13:00:07.297Z,94797.00
2023-05-11T13:01:07.345Z,94793.00
2023-05-11T13:02:07.255Z,94793.00
2023-05-11T13:03:07.373Z,94793.00
2023-05-11T13:04:07.365Z,94793.00
2023-05-11T13:05:07.525Z,94791.00
2023-05-11T13:06:09.025Z,94790.00
2023-05-11T13:07:07.481Z,94791.00
2023-05-11T13:08:07.503Z,94793.00
2023-05-11T13:09:07.542Z,94790.00
2023-05-11T13:10:07.694Z,94790.00
2023-05-11T13:11:07.662Z,94788.00
2023-05-11T13:12:07.733Z,94786.00
2023-05-11T13:13:08.562Z,94784.00
2023-05-11T13:14:07.783Z,94782.00
2023-05-11T13:15:08.475Z,94786.00
2023-05-11T13:16:07.992Z,94782.00
2023-05-11T13:17:07.913Z,94784.00
2023-05-11T13:18:07.984Z,94782.00
2023-05-11T13:19:08.028Z,94782.00
2023-05-11T13:20:07.931Z,94778.00
2023-05-11T13:21:08.025Z,94780.00
2023-05-11T13:22:07.933Z,94782.00
2023-05-11T13:23:07.939Z,94778.00
2023-05-11T13:24:08.079Z,94778.00
2023-05-11T13:25:08.094Z,94778.00
2023-05-11T13:26:08.067Z,94774.00
2023-05-11T13:27:08.074Z,94780.00
2023-05-11T13:28:08.140Z,94780.00
2023-05-11T13:29:11.241Z,94782.00
2023-05-11T13:30:17.048Z,94780.00
2023-05-11T13:31:09.287Z,94784.00
2023-05-11T13:32:08.364Z,94780.00
2023-05-11T13:33:08.387Z,94778.00
2023-05-11T13:34:08.219Z,94774.00
2023-05-11T13:35:08.228Z,94772.00
2023-05-11T13:36:08.239Z,94774.00
2023-05-11T13:37:08.346Z,94772.00
2023-05-11T13:38:08.213Z,94774.00
2023-05-11T13:39:08.149Z,94776.00
2023-05-11T13:40:08.167Z,94776.00
2023-05-11T13:41:08.244Z,94778.00
2023-05-11T13:42:08.280Z,94778.00
2023-05-11T13:43:08.190Z,94776.00
2023-05-11T13:44:08.204Z,94780.00
2023-05-11T13:45:08.210Z,94778.00
2023-05-11T13:46:08.187Z,94778.00
2023-05-11T13:47:08.173Z,94778.00
2023-05-11T13:48:08.127Z,94776.00
2023-05-11T13:49:08.072Z,94780.00
2023-05-11T13:50:08.205Z,94778.00
2023-05-11T13:51:08.189Z,94780.00
2023-05-11T13:52:08.142Z,94776.00
2023-05-11T13:53:08.177Z,94778.00
2023-05-11T13:54:09.036Z,94774.00
2023-05-11T13:55:08.129Z,94774.00
2023-05-11T13:56:08.247Z,94774.00
2023-05-11T13:57:08.104Z,94774.00
2023-05-11T13:58:08.041Z,94774.00
2023-05-11T13:59:08.049Z,94774.00
2023-05-11T14:00:08.086Z,94772.00
2023-05-11T14:01:09.561Z,94772.00
2023-05-11T14:02:08.073Z,94772.00
2023-05-11T14:03:09.098Z,94770.00
2023-05-11T14:04:08.075Z,94774.00
2023-05-11T14:05:07.984Z,94774.00
2023-05-11T14:06:08.012Z,94770.00
2023-05-11T14:07:07.992Z,94770.00
2023-05-11T14:08:15.602Z,94768.00
2023-05-11T14:09:09.070Z,94770.00
2023-05-11T14:10:07.928Z,94774.00
2023-05-11T14:11:07.920Z,94768.00
2023-05-11T14:12:07.958Z,94774.00
2023-05-11T14:13:07.880Z,94768.00
2023-05-11T14:14:07.965Z,94764.00
2023-05-11T14:15:08.980Z,94762.00
2023-05-11T14:16:07.952Z,94766.00
2023-05-11T14:17:07.896Z,94766.00
2023-05-11T14:18:08.035Z,94762.00
2023-05-11T14:19:07.931Z,94766.00
2023-05-11T14:20:07.921Z,94770.00
2023-05-11T14:21:08.017Z,94764.00
2023-05-11T14:22:08.559Z,94766.00
2023-05-11T14:23:08.840Z,94768.00
2023-05-11T14:24:12.578Z,94768.00
2023-05-11T14:25:08.945Z,94762.00
2023-05-11T14:26:07.860Z,94768.00
2023-05-11T14:27:07.979Z,94766.00
2023-05-11T14:28:07.944Z,94766.00
2023-05-11T14:29:07.862Z,94766.00
2023-05-11T14:30:07.849Z,94766.00
2023-05-11T14:31:07.927Z,94762.00
2023-05-11T14:32:07.787Z,94762.00
2023-05-11T14:33:08.254Z,94762.00
2023-05-11T14:34:07.846Z,94762.00
2023-05-11T14:35:07.881Z,94760.00
2023-05-11T14:36:07.778Z,94762.00
2023-05-11T14:37:07.796Z,94754.00
2023-05-11T14:38:07.849Z,94756.00